Time;durP1;ratioP1;P1;durP2;ratioP2;P2;SDS_P1;SDS_P2;PMS_P1;PMS_P2;Temp;Humidity;BMP_temperature;BMP_pressure;BME280_temperature;BME280_humidity;BME280_pressure;Samples;Min_cycle;Max_cycle;Signal;HPM_P1;HPM_P2
2021/11/21 00:03:50;;;;;;;;;;;4.50;99.90;;;3.28;100.00;95616.78;10446818;28;2060;-75
2021/11/21 00:08:53;;;;;;;;;;;4.50;99.90;;;3.35;100.00;95615.63;10449870;28;2009;-76
2021/11/21 00:13:56;;;;;;;;;;;4.40;99.90;;;3.47;100.00;95604.97;10452307;28;1993;-76
2021/11/21 00:18:59;;;;;;;;;;;4.50;99.90;;;3.51;100.00;95603.50;10445797;28;2083;-74
2021/11/21 00:24:02;;;;;;;;;;;4.50;99.90;;;3.45;100.00;95591.94;10447133;28;2119;-76
2021/11/21 00:29:04;;;;;;;;;;;4.50;99.90;;;3.44;100.00;95581.56;10449388;28;2064;-75
2021/11/21 00:34:07;;;;;;;;;;;4.50;99.90;;;3.38;100.00;95582.47;10450670;28;1914;-76
2021/11/21 00:39:10;;;;;;;;;;;4.50;99.90;;;3.37;100.00;95573.69;10451236;28;1964;-76
2021/11/21 00:44:13;;;;;;;;;;;4.50;99.90;;;3.42;100.00;95563.16;10447974;28;2042;-75
2021/11/21 00:49:17;;;;;;;;;;;4.50;99.90;;;3.26;100.00;95558.56;10449610;28;2081;-75
2021/11/21 00:54:27;;;;;;;;;;;4.40;99.90;;;3.06;100.00;95545.66;10448483;28;2126;-75
2021/11/21 00:59:30;;;;;;;;;;;4.20;99.90;;;3.01;100.00;95528.81;10448993;28;2124;-76
2021/11/21 01:04:33;;;;;;;;;;;4.10;99.90;;;3.05;100.00;95533.41;10446946;28;2047;-76
2021/11/21 01:09:35;;;;;;;;;;;4.10;99.90;;;3.10;100.00;95528.19;10446910;28;2075;-75
2021/11/21 01:14:38;;;;;;;;;;;4.10;99.90;;;3.07;100.00;95522.56;10447526;28;2003;-76
2021/11/21 01:19:43;;;;;;;;;;;4.20;99.90;;;3.14;100.00;95513.44;10448570;28;2024;-76
2021/11/21 01:24:47;;;;;;;;;;;4.20;99.90;;;3.13;100.00;95511.00;10446454;28;2061;-75
2021/11/21 01:29:49;;;;;;;;;;;4.20;99.90;;;2.88;100.00;95503.28;10431870;28;2050;-76
2021/11/21 01:34:52;;;;;;;;;;;4.10;99.90;;;2.70;100.00;95490.94;10447360;28;2012;-76
2021/11/21 01:39:55;;;;;;;;;;;4.00;99.90;;;2.65;100.00;95494.28;10456388;28;2008;-74
2021/11/21 01:44:58;;;;;;;;;;;3.90;99.90;;;2.67;100.00;95492.22;10445974;28;1948;-75
2021/11/21 01:50:01;;;;;;;;;;;3.80;99.90;;;2.65;100.00;95482.88;10439718;28;2045;-76
2021/11/21 01:55:04;;;;;;;;;;;3.80;99.90;;;2.77;100.00;95474.91;10440116;28;2163;-76
2021/11/21 02:00:06;;;;;;;;;;;3.80;99.90;;;2.68;100.00;95462.00;10432224;28;1966;-76
2021/11/21 02:05:09;;;;;;;;;;;3.90;99.90;;;2.65;100.00;95457.13;10440407;28;2128;-76
2021/11/21 02:10:12;;;;;;;;;;;3.80;99.90;;;2.60;100.00;95454.34;10440755;28;2076;-77
2021/11/21 02:15:21;;;;;;;;;;;3.80;99.90;;;2.55;100.00;95451.63;10445013;28;2055;-76
2021/11/21 02:20:44;;;;;;;;;;;3.70;99.90;;;2.37;100.00;95443.75;10458281;28;2008;-75
2021/11/21 02:25:47;;;;;;;;;;;3.70;99.90;;;2.43;100.00;95438.34;10458064;28;2053;-74
2021/11/21 02:31:11;;;;;;;;;;;3.70;99.90;;;2.55;100.00;95432.22;10462944;28;2111;-74
2021/11/21 02:36:34;;;;;;;;;;;3.60;99.90;;;2.47;100.00;95422.75;10466421;28;2128;-75
2021/11/21 02:41:53;;;;;;;;;;;3.60;99.90;;;2.44;100.00;95417.91;10456467;28;2112;-74
2021/11/21 02:46:56;;;;;;;;;;;3.60;99.90;;;2.42;100.00;95404.09;10457872;28;2198;-73
2021/11/21 02:51:59;;;;;;;;;;;3.50;99.90;;;2.38;100.00;95400.28;10444906;28;2065;-75
2021/11/21 02:57:02;;;;;;;;;;;3.50;99.90;;;2.34;100.00;95394.63;10453703;28;2050;-75
2021/11/21 03:02:05;;;;;;;;;;;3.50;99.90;;;2.38;100.00;95379.84;10441172;28;2076;-75
2021/11/21 03:07:09;;;;;;;;;;;3.40;99.90;;;2.27;100.00;95366.59;10444295;28;2078;-76
2021/11/21 03:12:12;;;;;;;;;;;3.40;99.90;;;2.33;100.00;95357.72;10442256;28;2064;-76
2021/11/21 03:17:15;;;;;;;;;;;3.40;99.90;;;2.33;100.00;95357.72;10443170;28;2075;-75
2021/11/21 03:22:18;;;;;;;;;;;3.40;99.90;;;2.29;100.00;95356.56;10448578;28;1991;-74
2021/11/21 03:27:23;;;;;;;;;;;3.50;99.90;;;2.24;100.00;95337.91;10439979;28;1991;-75
2021/11/21 03:32:26;;;;;;;;;;;3.40;99.90;;;2.11;100.00;95323.84;10447942;28;2022;-75
2021/11/21 03:37:29;;;;;;;;;;;3.30;99.90;;;1.87;100.00;95332.81;10443268;28;1986;-76
2021/11/21 03:42:32;;;;;;;;;;;3.20;99.90;;;1.81;100.00;95318.66;10445621;28;2087;-75
2021/11/21 03:47:35;;;;;;;;;;;3.10;99.90;;;1.69;100.00;95317.03;10441958;28;2046;-73
2021/11/21 03:52:38;;;;;;;;;;;3.00;99.90;;;1.67;100.00;95316.44;10441480;28;1970;-75
2021/11/21 03:57:40;;;;;;;;;;;3.00;99.90;;;1.52;100.00;95320.31;10435263;28;2023;-74
2021/11/21 04:02:43;;;;;;;;;;;2.90;99.90;;;1.44;100.00;95319.84;10448145;28;2122;-75
2021/11/21 04:07:46;;;;;;;;;;;2.80;99.90;;;1.51;100.00;95318.72;10441782;28;2068;-74
2021/11/21 04:12:49;;;;;;;;;;;2.70;99.90;;;1.49;100.00;95314.69;10443089;28;1996;-73
2021/11/21 04:18:12;;;;;;;;;;;2.70;99.90;;;1.40;100.00;95316.88;10434807;28;2097;-74
2021/11/21 04:23:17;;;;;;;;;;;2.60;99.90;;;1.06;100.00;95316.53;10439926;28;2053;-74
2021/11/21 04:28:20;;;;;;;;;;;2.50;99.90;;;1.05;100.00;95314.91;10439770;28;2033;-74
2021/11/21 04:33:23;;;;;;;;;;;2.30;99.90;;;0.88;100.00;95313.13;10442264;28;2045;-74
2021/11/21 04:38:26;;;;;;;;;;;2.20;99.90;;;0.90;100.00;95301.31;10440873;28;1939;-74
2021/11/21 04:43:28;;;;;;;;;;;2.20;99.90;;;0.79;100.00;95300.22;10444091;28;2072;-75
2021/11/21 04:48:32;;;;;;;;;;;2.10;99.90;;;0.80;100.00;95295.72;10442288;28;2179;-75
2021/11/21 04:53:36;;;;;;;;;;;2.00;99.90;;;0.68;100.00;95290.38;10442705;28;2078;-74
2021/11/21 04:58:39;;;;;;;;;;;1.70;99.90;;;0.44;100.00;95291.28;10436107;28;1964;-74
2021/11/21 05:03:41;;;;;;;;;;;1.70;99.90;;;0.44;100.00;95292.09;10441335;28;2001;-75
2021/11/21 05:08:45;;;;;;;;;;;1.70;99.90;;;0.31;100.00;95292.25;10444074;28;2057;-75
2021/11/21 05:13:47;;;;;;;;;;;1.90;99.90;;;0.38;100.00;95282.44;10438015;28;2224;-74
2021/11/21 05:18:51;;;;;;;;;;;;;;;0.40;100.00;95272.44;10442434;28;2037;-76
2021/11/21 05:23:54;;;;;;;;;;;;;;;0.70;100.00;95266.34;10438874;28;2017;-74
2021/11/21 05:28:57;;;;;;;;;;;;;;;0.85;100.00;95258.81;10437730;28;2008;-75
2021/11/21 05:34:01;;;;;;;;;;;;;;;0.84;100.00;95262.50;10442210;28;2066;-74
2021/11/21 05:39:05;;;;;;;;;;;;;;;0.79;100.00;95262.38;10443647;28;1983;-75
2021/11/21 05:44:08;;;;;;;;;;;;;;;0.78;100.00;95252.81;10436261;28;2206;-75
2021/11/21 05:49:12;;;;;;;;;;;;;;;0.81;100.00;95265.59;10439024;28;2254;-75
2021/11/21 05:54:15;;;;;;;;;;;;;;;0.71;100.00;95260.03;10441862;28;2063;-75
2021/11/21 05:59:18;;;;;;;;;;;;;;;0.66;100.00;95250.13;10440124;28;2003;-76
2021/11/21 06:04:21;;;;;;;;;;;1.80;99.90;;;0.71;100.00;95237.03;10437439;28;2025;-73
2021/11/21 06:09:24;;;;;;;;;;;1.60;99.90;;;0.85;100.00;95234.22;10439550;28;1997;-75
2021/11/21 06:14:27;;;;;;;;;;;1.70;99.90;;;0.89;100.00;95228.25;10445585;28;2017;-74
2021/11/21 06:19:30;;;;;;;;;;;1.80;99.90;;;0.90;100.00;95227.22;10478298;28;1994;-74
2021/11/21 06:24:33;;;;;;;;;;;1.90;99.90;;;0.88;100.00;95220.50;10462811;28;2078;-74
2021/11/21 06:29:36;;;;;;;;;;;1.90;99.90;;;0.90;100.00;95205.22;10461506;28;2145;-74
2021/11/21 06:34:38;;;;;;;;;;;2.00;99.90;;;0.93;100.00;95210.06;10462982;28;2367;-74
2021/11/21 06:39:41;;;;;;;;;;;1.90;99.90;;;0.92;100.00;95213.75;10481586;28;2405;-73
2021/11/21 06:44:44;;;;;;;;;;;2.00;99.90;;;0.78;100.00;95207.84;10495475;28;2105;-73
2021/11/21 06:49:47;;;;;;;;;;;2.00;99.90;;;0.64;100.00;95207.22;10487360;28;2025;-73
2021/11/21 06:54:50;;;;;;;;;;;1.90;99.90;;;0.62;100.00;95217.22;10486846;28;1797;-74
2021/11/21 06:59:53;;;;;;;;;;;1.80;99.90;;;0.54;100.00;95217.53;10483892;28;2017;-75
2021/11/21 07:04:56;;;;;;;;;;;1.70;99.90;;;0.44;100.00;95215.41;10450581;28;2082;-74
2021/11/21 07:09:59;;;;;;;;;;;1.60;99.90;;;0.50;100.00;95213.72;10447121;28;2086;-75
2021/11/21 07:15:02;;;;;;;;;;;1.60;99.90;;;0.50;100.00;95219.00;10451489;28;1958;-75
2021/11/21 07:20:05;;;;;;;;;;;1.60;99.90;;;0.57;100.00;95221.56;10456469;28;2086;-74
2021/11/21 07:25:08;;;;;;;;;;;1.60;99.90;;;0.64;100.00;95222.31;10449021;28;2042;-77
2021/11/21 07:30:11;;;;;;;;;;;1.70;99.90;;;0.61;100.00;95217.44;10449475;28;2014;-74
2021/11/21 07:35:14;;;;;;;;;;;1.70;99.90;;;0.68;100.00;95218.97;10456540;28;2240;-75
2021/11/21 07:40:17;;;;;;;;;;;1.70;99.90;;;0.70;100.00;95216.09;10449645;28;2081;-75
2021/11/21 07:45:19;;;;;;;;;;;1.70;99.90;;;0.79;100.00;95212.09;10445906;28;2233;-74
2021/11/21 07:50:22;;;;;;;;;;;1.80;99.90;;;0.83;100.00;95213.28;10455602;28;2089;-74
2021/11/21 07:55:25;;;;;;;;;;;1.80;99.90;;;0.94;100.00;95207.19;10450859;28;2346;-75
2021/11/21 08:00:28;;;;;;;;;;;1.90;99.90;;;1.00;100.00;95203.63;10459020;28;1966;-74
2021/11/21 08:05:31;;;;;;;;;;;2.00;99.90;;;0.90;100.00;95208.69;10444261;28;2063;-74
2021/11/21 08:10:34;;;;;;;;;;;2.00;99.90;;;0.90;100.00;95200.75;10449533;28;2024;-75
2021/11/21 08:15:40;;;;;;;;;;;2.00;99.90;;;1.02;100.00;95203.41;10448421;28;2069;-75
2021/11/21 08:20:43;;;;;;;;;;;1.90;99.90;;;1.03;100.00;95203.19;10444959;28;1972;-75
2021/11/21 08:25:46;;;;;;;;;;;2.00;99.90;;;1.27;100.00;95189.94;10443776;28;2069;-75
2021/11/21 08:30:49;;;;;;;;;;;2.10;99.90;;;1.43;100.00;95183.97;10453792;28;1997;-73
2021/11/21 08:35:51;;;;;;;;;;;2.40;99.90;;;1.61;100.00;95189.16;10462415;28;1998;-74
2021/11/21 08:40:54;;;;;;;;;;;2.50;99.90;;;1.79;100.00;95179.47;10461159;28;2084;-76
2021/11/21 08:45:57;;;;;;;;;;;2.70;99.90;;;1.92;100.00;95181.88;10461827;28;2052;-75
2021/11/21 08:51:00;;;;;;;;;;;2.80;99.90;;;2.12;100.00;95171.66;10470280;28;2079;-73
2021/11/21 08:56:03;;;;;;;;;;;3.00;99.90;;;2.26;100.00;95176.69;10457620;28;1938;-75
2021/11/21 09:01:11;;;;;;;;;;;3.10;99.90;;;2.34;100.00;95169.16;10467206;28;1993;-75
2021/11/21 09:06:14;;;;;;;;;;;3.20;99.90;;;2.39;100.00;95163.16;10460609;28;2135;-74
2021/11/21 09:11:17;;;;;;;;;;;3.30;99.90;;;2.59;100.00;95166.16;10455997;28;2052;-75
2021/11/21 09:16:19;;;;;;;;;;;3.40;99.90;;;2.74;100.00;95157.69;10438150;28;1893;-75
2021/11/21 09:21:22;;;;;;;;;;;3.60;99.90;;;2.83;100.00;95166.84;10460743;28;1842;-74
2021/11/21 09:26:25;;;;;;;;;;;3.70;99.90;;;3.03;99.37;95152.31;10453017;28;1905;-75
2021/11/21 09:31:28;;;;;;;;;;;3.80;99.90;;;3.21;98.64;95152.06;10464589;28;2092;-75
2021/11/21 09:36:31;;;;;;;;;;;4.00;99.90;;;3.34;97.74;95149.09;10469550;28;1789;-74
2021/11/21 09:41:34;;;;;;;;;;;4.10;99.90;;;3.38;96.83;95157.38;10470074;28;1849;-75
2021/11/21 09:46:37;;;;;;;;;;;4.30;99.90;;;3.34;96.83;95135.00;10461244;28;1884;-75
2021/11/21 09:51:40;;;;;;;;;;;4.30;99.90;;;3.51;96.10;95141.09;10458573;28;1910;-75
2021/11/21 09:56:43;;;;;;;;;;;4.40;99.90;;;3.55;95.94;95131.56;10448906;28;1889;-75
2021/11/21 10:01:46;;;;;;;;;;;4.50;99.90;;;3.61;95.41;95135.09;10461299;28;1882;-75
2021/11/21 10:06:49;;;;;;;;;;;4.50;99.90;;;3.75;94.66;95139.00;10458652;28;1940;-75
2021/11/21 10:11:52;;;;;;;;;;;4.60;99.90;;;3.91;93.22;95121.41;10458297;28;2003;-74
2021/11/21 10:16:55;;;;;;;;;;;4.80;99.90;;;4.11;94.32;95113.66;10460262;28;1842;-76
2021/11/21 10:22:00;;;;;;;;;;;5.00;99.90;;;4.25;92.79;95108.75;10435036;28;1925;-72
2021/11/21 10:27:04;;;;;;;;;;;5.10;99.90;;;4.43;91.36;95107.63;10451705;28;1914;-73
2021/11/21 10:32:07;;;;;;;;;;;5.30;99.90;;;4.60;90.87;95100.34;10457617;28;1918;-72
2021/11/21 10:37:10;;;;;;;;;;;5.40;99.90;;;4.72;89.77;95097.53;10463023;28;1936;-74
2021/11/21 10:42:33;;;;;;;;;;;5.50;99.90;;;4.73;89.67;95086.59;10462880;28;1980;-72
2021/11/21 10:47:36;;;;;;;;;;;5.70;99.90;;;4.97;89.38;95083.63;10465696;28;1921;-71
2021/11/21 10:52:38;;;;;;;;;;;5.90;99.90;;;5.15;89.29;95080.53;10452296;28;1910;-72
2021/11/21 10:57:41;;;;;;;;;;;6.20;99.90;;;5.13;89.42;95072.00;10451405;28;1877;-69
2021/11/21 11:02:44;;;;;;;;;;;6.30;99.90;;;4.87;91.41;95066.47;10451068;28;1890;-73
2021/11/21 11:07:47;;;;;;;;;;;6.10;99.90;;;4.82;92.06;95054.97;10461331;28;1861;-70
2021/11/21 11:12:50;;;;;;;;;;;5.90;99.90;;;4.70;93.89;95055.16;10469417;28;1980;-72
2021/11/21 11:17:53;;;;;;;;;;;5.80;99.90;;;4.75;94.22;95049.88;10456831;28;1929;-71
2021/11/21 11:22:58;;;;;;;;;;;5.80;99.90;;;4.77;94.65;95047.78;10479892;28;1913;-73
2021/11/21 11:28:01;;;;;;;;;;;5.90;99.90;;;4.92;94.90;95052.41;10449599;28;1985;-72
2021/11/21 11:33:04;;;;;;;;;;;5.90;99.90;;;5.00;94.96;95051.13;10459746;28;1995;-74
2021/11/21 11:38:07;;;;;;;;;;;6.00;99.90;;;4.82;96.93;95047.78;10472093;28;1948;-71
2021/11/21 11:43:10;;;;;;;;;;;6.00;99.90;;;4.64;98.03;95052.69;10469776;28;1862;-72
2021/11/21 11:48:12;;;;;;;;;;;5.80;99.90;;;4.44;100.00;95048.00;10459838;28;1997;-69
2021/11/21 11:53:15;;;;;;;;;;;5.60;99.90;;;4.33;100.00;95047.94;10449425;28;1975;-71
2021/11/21 11:58:18;;;;;;;;;;;5.50;99.90;;;4.23;100.00;95039.03;10444651;28;2056;-74
2021/11/21 12:03:21;;;;;;;;;;;5.50;99.90;;;4.33;100.00;95045.28;10452365;28;1932;-74
2021/11/21 12:08:42;;;;;;;;;;;5.40;99.90;;;4.11;100.00;95039.19;10452028;28;1980;-74
2021/11/21 12:13:45;;;;;;;;;;;5.20;99.90;;;4.50;99.68;95041.69;10452593;28;1885;-77
2021/11/21 12:18:48;;;;;;;;;;;5.40;99.90;;;4.67;98.74;95045.03;10439890;28;1877;-72
2021/11/21 12:23:51;;;;;;;;;;;5.60;99.90;;;4.55;98.52;95060.34;10449980;28;1914;-75
2021/11/21 12:28:56;;;;;;;;;;;5.60;99.90;;;4.14;99.30;95044.03;10441761;28;1958;-75
2021/11/21 12:33:59;;;;;;;;;;;5.50;99.90;;;4.31;99.57;95044.69;10446996;28;1975;-75
2021/11/21 12:39:02;;;;;;;;;;;5.30;99.90;;;3.92;100.00;95052.03;10448355;28;2258;-76
2021/11/21 12:44:04;;;;;;;;;;;5.30;99.90;;;3.70;100.00;95048.59;10457304;28;1873;-75
2021/11/21 12:49:07;;;;;;;;;;;5.10;99.90;;;3.86;100.00;95044.25;10449710;28;1913;-75
2021/11/21 12:54:10;;;;;;;;;;;5.10;99.90;;;4.03;100.00;95037.78;10443163;28;1834;-75
2021/11/21 12:59:13;;;;;;;;;;;4.90;99.90;;;3.72;100.00;95035.84;10449375;28;1878;-75
2021/11/21 13:04:16;;;;;;;;;;;4.90;99.90;;;3.87;100.00;95032.53;10472135;28;1874;-77
2021/11/21 13:09:19;;;;;;;;;;;4.80;99.90;;;4.05;100.00;95024.22;10466990;28;1963;-76
2021/11/21 13:14:22;;;;;;;;;;;4.90;99.90;;;4.29;100.00;95022.06;10463755;28;1945;-76
2021/11/21 13:19:24;;;;;;;;;;;5.10;99.90;;;4.39;98.77;95024.00;10439994;28;1901;-76
2021/11/21 13:24:27;;;;;;;;;;;5.20;99.90;;;4.25;100.00;95008.47;10451675;28;1866;-75
2021/11/21 13:29:32;;;;;;;;;;;5.30;99.90;;;4.05;100.00;95003.75;10443056;28;1947;-75
2021/11/21 13:34:34;;;;;;;;;;;5.10;99.90;;;4.45;99.30;95001.72;10433868;28;1893;-75
2021/11/21 13:39:38;;;;;;;;;;;5.20;99.90;;;3.98;100.00;95011.13;10435375;28;1908;-76
2021/11/21 13:44:41;;;;;;;;;;;5.00;99.90;;;3.99;100.00;95004.75;10453840;28;2007;-75
2021/11/21 13:49:44;;;;;;;;;;;5.20;99.90;;;4.17;100.00;95006.25;10448312;28;1946;-76
2021/11/21 13:54:47;;;;;;;;;;;5.30;99.90;;;4.17;100.00;95000.94;10447717;28;1901;-77
2021/11/21 13:59:50;;;;;;;;;;;5.20;99.90;;;4.14;99.76;95008.66;10441201;28;1939;-75
2021/11/21 14:04:53;;;;;;;;;;;5.40;99.90;;;4.23;99.92;95005.25;10444623;28;1920;-75
2021/11/21 14:09:55;;;;;;;;;;;5.40;99.90;;;3.82;100.00;95014.69;10445647;28;1913;-75
2021/11/21 14:14:58;;;;;;;;;;;5.20;99.90;;;3.73;100.00;95016.97;10436788;28;1858;-77
2021/11/21 14:20:06;;;;;;;;;;;4.90;99.90;;;3.96;100.00;95007.13;10443053;28;1877;-75
2021/11/21 14:25:09;;;;;;;;;;;5.00;99.90;;;4.10;100.00;95018.97;10473111;28;1878;-77
2021/11/21 14:30:12;;;;;;;;;;;5.10;99.90;;;4.19;99.81;95009.47;10451894;28;1910;-76
2021/11/21 14:35:15;;;;;;;;;;;5.30;99.90;;;4.11;99.52;95003.81;10436730;28;2050;-77
2021/11/21 14:40:17;;;;;;;;;;;5.30;99.90;;;3.99;100.00;95009.28;10444972;28;1929;-75
2021/11/21 14:45:20;;;;;;;;;;;5.30;99.90;;;3.82;100.00;95014.69;10441364;28;1901;-76
2021/11/21 14:50:23;;;;;;;;;;;5.10;99.90;;;3.89;100.00;95014.50;10435453;28;1910;-75
2021/11/21 14:55:26;;;;;;;;;;;5.00;99.90;;;4.01;100.00;95007.19;10440147;28;1945;-75
2021/11/21 15:00:29;;;;;;;;;;;5.00;99.90;;;3.89;100.00;95017.16;10445405;28;1886;-75
2021/11/21 15:05:32;;;;;;;;;;;5.10;99.90;;;3.66;100.00;95015.56;10435640;28;1882;-75
2021/11/21 15:10:36;;;;;;;;;;;5.00;99.90;;;3.61;100.00;95021.63;10429762;28;1945;-75
2021/11/21 15:15:45;;;;;;;;;;;4.90;99.90;;;3.41;100.00;95034.66;10449751;28;1988;-75
2021/11/21 15:20:47;;;;;;;;;;;4.80;99.90;;;3.20;100.00;95030.94;10442798;28;1830;-75
2021/11/21 15:25:50;;;;;;;;;;;4.60;99.90;;;2.97;100.00;95021.31;10448563;28;1874;-75
2021/11/21 15:30:53;;;;;;;;;;;4.40;99.90;;;2.89;100.00;95033.16;10452073;28;1948;-76
2021/11/21 15:35:56;;;;;;;;;;;4.10;99.90;;;3.04;100.00;95034.44;10438012;28;1940;-75
2021/11/21 15:40:59;;;;;;;;;;;4.10;99.90;;;2.86;100.00;95030.19;10434131;28;1870;-76
2021/11/21 15:46:02;;;;;;;;;;;4.10;99.90;;;2.96;100.00;95036.47;10441924;28;1882;-74
2021/11/21 15:51:05;;;;;;;;;;;4.10;99.90;;;2.76;100.00;95035.38;10444949;28;2028;-75
2021/11/21 15:56:09;;;;;;;;;;;4.00;99.90;;;2.65;100.00;95045.00;10448255;28;1961;-75
2021/11/21 16:01:11;;;;;;;;;;;4.00;99.90;;;2.72;100.00;95051.75;10447104;28;2054;-75
2021/11/21 16:06:15;;;;;;;;;;;4.00;99.90;;;2.70;100.00;95056.50;10453833;28;1944;-74
2021/11/21 16:11:18;;;;;;;;;;;3.90;99.90;;;2.74;100.00;95048.06;10444716;28;1950;-76
2021/11/21 16:16:28;;;;;;;;;;;3.80;99.90;;;2.76;100.00;95048.63;10452467;28;1846;-77
2021/11/21 16:21:31;;;;;;;;;;;3.80;99.90;;;2.87;100.00;95053.06;10435267;28;1952;-75
2021/11/21 16:26:34;;;;;;;;;;;3.90;99.90;;;2.78;100.00;95054.50;10440307;28;1933;-76
2021/11/21 16:31:40;;;;;;;;;;;4.00;99.90;;;2.59;100.00;95065.34;10448124;28;2018;-76
2021/11/21 16:36:43;;;;;;;;;;;3.90;99.90;;;2.32;100.00;95074.97;10446064;28;1853;-77
2021/11/21 16:41:45;;;;;;;;;;;3.70;99.90;;;2.23;100.00;95082.53;10448505;28;1993;-75
2021/11/21 16:46:48;;;;;;;;;;;3.50;99.90;;;1.95;100.00;95096.56;10439964;28;1954;-75
2021/11/21 16:51:51;;;;;;;;;;;3.40;99.90;;;1.89;100.00;95100.97;10445119;28;1910;-76
2021/11/21 16:56:54;;;;;;;;;;;3.30;99.90;;;1.81;100.00;95096.03;10440174;28;1530;-75
2021/11/21 17:01:57;;;;;;;;;;;3.20;99.90;;;2.06;100.00;95090.44;10443573;28;1925;-75
2021/11/21 17:07:00;;;;;;;;;;;3.30;99.90;;;1.97;100.00;95094.47;10438153;28;2098;-74
2021/11/21 17:12:03;;;;;;;;;;;3.40;99.90;;;1.83;100.00;95109.03;10448761;28;2066;-76
2021/11/21 17:17:06;;;;;;;;;;;3.10;99.90;;;2.00;100.00;95115.22;10440566;28;1994;-75
2021/11/21 17:22:14;;;;;;;;;;;3.20;99.90;;;2.21;100.00;95126.22;10448725;28;2232;-75
2021/11/21 17:27:17;;;;;;;;;;;3.40;99.90;;;1.93;100.00;95119.06;10441704;28;2027;-76
2021/11/21 17:32:20;;;;;;;;;;;3.30;99.90;;;1.81;100.00;95133.13;10446275;28;2282;-76
2021/11/21 17:37:23;;;;;;;;;;;3.10;99.90;;;1.65;100.00;95146.28;10454801;28;1695;-76
2021/11/21 17:42:25;;;;;;;;;;;2.90;99.90;;;1.66;100.00;95147.94;10432989;28;1885;-76
2021/11/21 17:47:28;;;;;;;;;;;2.90;99.90;;;1.50;100.00;95152.09;10437157;28;1882;-72
2021/11/21 17:52:31;;;;;;;;;;;2.80;99.90;;;1.48;100.00;95160.25;10444315;28;1985;-77
2021/11/21 17:57:34;;;;;;;;;;;2.80;99.90;;;1.66;100.00;95155.88;10436531;28;1720;-73
2021/11/21 18:02:48;;;;;;;;;;;2.70;99.90;;;1.67;100.00;95158.28;10444318;28;1426;-76
2021/11/21 18:08:11;;;;;;;;;;;2.80;99.90;;;1.53;100.00;95162.22;10446640;28;1343;-75
2021/11/21 18:13:16;;;;;;;;;;;2.70;99.90;;;1.55;100.00;95166.25;10438912;28;1979;-75
2021/11/21 18:18:19;;;;;;;;;;;2.80;99.90;;;1.53;100.00;95167.53;10448761;28;1912;-76
2021/11/21 18:23:22;;;;;;;;;;;2.80;99.90;;;1.52;100.00;95165.88;10430342;28;1861;-76
2021/11/21 18:28:24;;;;;;;;;;;2.80;99.90;;;1.68;100.00;95157.25;10455197;28;1878;-75
2021/11/21 18:33:27;;;;;;;;;;;2.70;99.90;;;1.76;100.00;95150.78;10452707;28;1980;-75
2021/11/21 18:38:32;;;;;;;;;;;2.80;99.90;;;1.89;100.00;95145.22;10462553;28;1898;-76
2021/11/21 18:43:35;;;;;;;;;;;2.90;99.90;;;2.02;100.00;95147.59;10446921;28;1924;-75
2021/11/21 18:48:38;;;;;;;;;;;3.00;99.90;;;1.99;100.00;95155.22;10446784;28;1881;-77
2021/11/21 18:53:42;;;;;;;;;;;3.00;99.90;;;2.09;100.00;95150.91;10457387;28;1917;-76
2021/11/21 18:58:49;;;;;;;;;;;3.20;99.90;;;2.25;100.00;95153.88;10454277;28;1695;-76
2021/11/21 19:03:52;;;;;;;;;;;3.30;99.90;;;2.25;100.00;95154.69;10441614;28;1156;-76
2021/11/21 19:08:55;;;;;;;;;;;3.30;99.90;;;2.27;100.00;95157.88;10453361;28;1407;-77
2021/11/21 19:13:58;;;;;;;;;;;3.40;99.90;;;2.19;100.00;95160.13;10446136;28;1910;-77
2021/11/21 19:19:00;;;;;;;;;;;3.30;99.90;;;2.14;100.00;95164.28;10450536;28;1442;-77
2021/11/21 19:24:03;;;;;;;;;;;3.40;99.90;;;2.24;100.00;95178.78;10450252;28;1614;-76
2021/11/21 19:29:06;;;;;;;;;;;3.30;99.90;;;2.23;100.00;95185.09;10443726;28;1399;-76
2021/11/21 19:34:10;;;;;;;;;;;3.30;99.90;;;2.19;100.00;95198.06;10457525;28;1972;-75
2021/11/21 19:39:13;;;;;;;;;;;3.40;99.90;;;2.31;100.00;95200.66;10452358;28;1530;-75
2021/11/21 19:44:16;;;;;;;;;;;3.40;99.90;;;2.33;100.00;95215.28;10446537;28;1525;-76
2021/11/21 19:49:19;;;;;;;;;;;3.40;99.90;;;2.52;100.00;95207.16;10448260;28;1308;-75
2021/11/21 19:54:22;;;;;;;;;;;3.40;99.90;;;2.56;100.00;95206.47;10449434;28;1910;-75
2021/11/21 19:59:25;;;;;;;;;;;3.60;99.90;;;2.62;100.00;95208.16;10473240;28;1506;-75
2021/11/21 20:04:28;;;;;;;;;;;3.60;99.90;;;2.54;100.00;95200.56;10461398;28;1506;-76
2021/11/21 20:09:31;;;;;;;;;;;3.70;99.90;;;2.58;100.00;95204.38;10467323;28;1422;-75
2021/11/21 20:14:34;;;;;;;;;;;3.70;99.90;;;2.64;100.00;95200.75;10452904;28;1982;-77
2021/11/21 20:19:37;;;;;;;;;;;3.60;99.90;;;2.58;100.00;95203.56;10444130;28;1831;-76
2021/11/21 20:24:40;;;;;;;;;;;3.70;99.90;;;2.51;100.00;95200.25;10461593;28;1192;-76
2021/11/21 20:29:43;;;;;;;;;;;3.60;99.90;;;2.59;100.00;95213.13;10454834;28;1665;-76
2021/11/21 20:34:46;;;;;;;;;;;3.60;99.90;;;2.53;100.00;95208.78;10441544;28;2001;-77
2021/11/21 20:39:50;;;;;;;;;;;3.70;99.90;;;2.62;100.00;95212.66;10442431;28;1930;-77
2021/11/21 20:44:53;;;;;;;;;;;3.70;99.90;;;2.66;100.00;95208.47;10450563;28;1883;-77
2021/11/21 20:49:56;;;;;;;;;;;3.70;99.90;;;2.59;100.00;95208.63;10444135;28;2558;-77
2021/11/21 20:54:59;;;;;;;;;;;3.70;99.90;;;2.59;100.00;95202.50;10436502;28;1939;-73
2021/11/21 21:00:02;;;;;;;;;;;3.70;99.90;;;2.67;100.00;95205.63;10448558;28;2290;-76
2021/11/21 21:05:05;;;;;;;;;;;3.80;99.90;;;2.53;100.00;95201.63;10436381;28;1964;-75
2021/11/21 21:10:08;;;;;;;;;;;3.70;99.90;;;2.56;100.00;95209.13;10440307;28;1862;-76
2021/11/21 21:15:10;;;;;;;;;;;3.70;99.90;;;2.63;100.00;95223.03;10430643;28;2284;-75
2021/11/21 21:20:13;;;;;;;;;;;3.70;99.90;;;2.46;100.00;95222.19;10434245;28;1873;-76
2021/11/21 21:25:16;;;;;;;;;;;3.70;99.90;;;2.50;100.00;95223.31;10432935;28;1884;-76
2021/11/21 21:30:19;;;;;;;;;;;3.70;99.90;;;2.51;100.00;95226.78;10437691;28;1952;-72
2021/11/21 21:35:22;;;;;;;;;;;3.70;99.90;;;2.41;100.00;95222.88;10424589;28;1933;-74
2021/11/21 21:40:29;;;;;;;;;;;3.60;99.90;;;2.50;100.00;95225.97;10442833;28;1959;-76
2021/11/21 21:45:32;;;;;;;;;;;3.60;99.90;;;2.54;100.00;95228.94;10429023;28;2114;-76
2021/11/21 21:50:35;;;;;;;;;;;3.60;99.90;;;2.64;100.00;95229.16;10448432;28;2000;-74
2021/11/21 21:55:38;;;;;;;;;;;3.70;99.90;;;2.60;100.00;95218.19;10451588;28;1917;-75
2021/11/21 22:00:41;;;;;;;;;;;3.80;99.90;;;2.52;100.00;95204.50;10436115;28;1909;-74
2021/11/21 22:05:44;;;;;;;;;;;3.70;99.90;;;2.54;100.00;95219.13;10442695;28;2103;-75
2021/11/21 22:10:47;;;;;;;;;;;3.70;99.90;;;2.47;100.00;95215.03;10455905;28;1940;-74
2021/11/21 22:15:50;;;;;;;;;;;3.70;99.90;;;2.33;100.00;95222.44;10440740;28;1935;-76
2021/11/21 22:20:53;;;;;;;;;;;3.60;99.90;;;2.43;100.00;95204.09;10446209;28;1966;-75
2021/11/21 22:25:56;;;;;;;;;;;3.60;99.90;;;2.54;100.00;95205.06;10446665;28;1867;-75
2021/11/21 22:30:58;;;;;;;;;;;3.60;99.90;;;2.53;100.00;95204.25;10446611;28;1937;-75
2021/11/21 22:36:01;;;;;;;;;;;3.70;99.90;;;2.60;100.00;95215.53;10438676;28;1993;-75
2021/11/21 22:41:04;;;;;;;;;;;3.80;99.90;;;2.39;100.00;95210.91;10445012;28;1846;-73
2021/11/21 22:46:27;;;;;;;;;;;3.70;99.90;;;2.35;100.00;95228.31;10433594;28;1922;-74
2021/11/21 22:51:50;;;;;;;;;;;3.50;99.90;;;2.56;100.00;95235.66;10445407;28;1949;-75
2021/11/21 22:57:13;;;;;;;;;;;3.60;99.90;;;2.42;100.00;95226.34;10445950;28;1885;-74
2021/11/21 23:02:35;;;;;;;;;;;3.60;99.90;;;2.63;100.00;95231.00;10444577;28;1853;-74
2021/11/21 23:07:58;;;;;;;;;;;3.70;99.90;;;2.36;100.00;95243.22;10452822;28;1941;-75
2021/11/21 23:13:21;;;;;;;;;;;3.60;99.90;;;2.31;100.00;95240.44;10438772;28;1981;-75
2021/11/21 23:18:24;;;;;;;;;;;3.50;99.90;;;2.39;100.00;95248.03;10453916;28;1870;-75
2021/11/21 23:23:27;;;;;;;;;;;3.50;99.90;;;2.38;100.00;95247.22;10453011;28;1877;-75
2021/11/21 23:28:30;;;;;;;;;;;3.50;99.90;;;2.41;100.00;95245.94;10445321;28;1911;-75
2021/11/21 23:33:33;;;;;;;;;;;3.50;99.90;;;2.46;100.00;95251.34;10447657;28;1910;-74
2021/11/21 23:38:36;;;;;;;;;;;3.60;99.90;;;2.34;100.00;95255.88;10443541;28;1834;-73
2021/11/21 23:43:39;;;;;;;;;;;3.60;99.90;;;2.35;100.00;95249.53;10449430;28;2059;-77